Terminal Aerodrome Forecast
Issued by NWS Billings, MT

Home | Current Version | Previous Version | Graphics & Text | Print | Product List | Glossary On
Versions: 1 2 3 4 5 6 7 8 9 10 11 12 13 14 15 16 17 18 19 20 21 22 23 24 25 26 27 28
501
FTUS45 KBYZ 201130
TAFMLS
TAF
KMLS 201130Z 2012/2112 05006KT P6SM VCSH BKN030 OVC060
     FM201600 36008KT P6SM VCSH BKN050 OVC100
     FM210000 02012KT P6SM VCSH BKN040 OVC060
     FM210600 02012KT 4SM -RASN BR BKN030 OVC050=

USA.gov is the U.S. government's official web portal to all federal, state and local government web resources and services.